Terminal Aerodrome Forecast
Issued by NWS

Home | Current Version | Previous Version | Text Only | Print | Product List | Glossary On
Versions: 1 2 3 4 5 6 7 8 9 10 11 12 13 14 15
346
FTAK31 PAJN 231737
TAFAYA
TAF
PAYA 231737Z 2318/2418 VRB06KT 6SM RA BR FEW020 OVC035
     FM231900 07005KT P6SM -SHRA OVC050
     FM232200 08005KT P6SM SCT250
     FM240100 VRB03KT P6SM BKN050
     FM241300 00000KT P6SM BKN250
      AMD NOT SKED=

USA.gov is the U.S. government's official web portal to all federal, state and local government web resources and services.